Time;durP1;ratioP1;P1;durP2;ratioP2;P2;SDS_P1;SDS_P2;PMS_P1;PMS_P2;Temp;Humidity;BMP_temperature;BMP_pressure;BME280_temperature;BME280_humidity;BME280_pressure;Samples;Min_cycle;Max_cycle;Signal;HPM_P1;HPM_P2
2021/06/04 00:04:37;;;;;;;4.53;4.00;;;18.80;99.90;;;;;;10502679;28;20597;-78
2021/06/04 00:09:38;;;;;;;4.40;4.00;;;18.80;99.90;;;;;;10507269;28;20204;-79
2021/06/04 00:14:43;;;;;;;6.20;3.80;;;18.70;99.90;;;;;;10502634;28;20229;-79
2021/06/04 00:19:45;;;;;;;5.10;4.23;;;18.70;99.90;;;;;;10486072;28;20557;-79
2021/06/04 00:24:50;;;;;;;5.20;4.70;;;18.70;99.90;;;;;;10505983;28;20581;-79
2021/06/04 00:29:53;;;;;;;4.27;3.90;;;18.70;99.90;;;;;;10503169;28;20204;-79
2021/06/04 00:34:55;;;;;;;4.30;4.07;;;18.70;99.90;;;;;;10499780;28;20644;-77
2021/06/04 00:39:56;;;;;;;4.50;4.10;;;18.60;99.90;;;;;;10506396;28;20213;-79
2021/06/04 00:45:00;;;;;;;4.90;4.60;;;18.60;99.90;;;;;;10504379;28;20730;-79
2021/06/04 00:50:08;;;;;;;6.03;4.30;;;18.60;99.90;;;;;;10500885;28;20200;-79
2021/06/04 00:55:14;;;;;;;4.40;4.10;;;18.50;99.90;;;;;;10480956;28;20247;-79
2021/06/04 01:00:24;;;;;;;4.60;4.30;;;18.50;99.90;;;;;;10504358;28;20932;-79
2021/06/04 01:05:30;;;;;;;5.80;4.70;;;18.50;99.90;;;;;;10495810;28;20289;-79
2021/06/04 01:10:47;;;;;;;4.80;4.40;;;18.50;99.90;;;;;;10504221;28;20200;-77
2021/06/04 01:16:06;;;;;;;5.30;4.90;;;18.50;99.90;;;;;;10496491;28;20228;-79
2021/06/04 01:21:14;;;;;;;5.93;4.47;;;18.50;99.90;;;;;;10488997;28;20212;-79
2021/06/04 01:26:26;;;;;;;4.13;3.93;;;18.40;99.90;;;;;;10504668;28;20242;-79
2021/06/04 01:31:34;;;;;;;4.80;4.40;;;18.40;99.90;;;;;;10485114;28;20501;-79
2021/06/04 01:36:41;;;;;;;5.10;4.60;;;18.40;99.90;;;;;;10495955;28;20250;-79
2021/06/04 01:41:48;;;;;;;4.43;4.13;;;18.40;99.90;;;;;;10499444;28;20219;-79
2021/06/04 01:46:53;;;;;;;4.90;4.40;;;18.30;99.90;;;;;;10501344;28;20279;-78
2021/06/04 01:51:59;;;;;;;4.40;4.03;;;18.30;99.90;;;;;;10500295;28;20283;-79
2021/06/04 01:57:16;;;;;;;4.63;4.23;;;18.30;99.90;;;;;;10500061;28;20204;-80
2021/06/04 02:02:20;;;;;;;4.90;4.50;;;18.30;99.90;;;;;;10500067;28;20228;-79
2021/06/04 02:07:26;;;;;;;3.87;3.50;;;18.30;99.90;;;;;;10501293;28;20200;-79
2021/06/04 02:12:29;;;;;;;4.90;4.50;;;18.30;99.90;;;;;;10501586;28;20719;-79
2021/06/04 02:17:52;;;;;;;5.20;4.27;;;18.30;99.90;;;;;;10483869;28;20205;-80
2021/06/04 02:23:07;;;;;;;4.53;4.23;;;18.30;99.90;;;;;;10500496;28;20231;-79
2021/06/04 02:28:16;;;;;;;6.33;3.80;;;18.30;99.90;;;;;;10500872;28;20752;-79
2021/06/04 02:33:25;;;;;;;5.33;4.93;;;18.20;99.90;;;;;;10500997;28;20354;-80
2021/06/04 02:38:32;;;;;;;5.40;4.23;;;18.20;99.90;;;;;;10502010;28;20227;-80
2021/06/04 02:43:39;;;;;;;6.03;4.57;;;18.20;99.90;;;;;;10484579;28;20231;-80
2021/06/04 02:48:44;;;;;;;4.77;4.37;;;18.10;99.90;;;;;;10484348;28;20635;-79
2021/06/04 02:53:50;;;;;;;4.40;4.00;;;18.10;99.90;;;;;;10510052;28;20239;-78
2021/06/04 02:58:57;;;;;;;6.77;5.03;;;18.10;99.90;;;;;;10497998;28;20215;-79
2021/06/04 03:04:02;;;;;;;10.03;5.50;;;18.10;99.90;;;;;;10490310;28;20700;-80
2021/06/04 03:09:12;;;;;;;5.50;5.10;;;18.10;99.90;;;;;;10501437;28;20200;-78
2021/06/04 03:14:17;;;;;;;5.20;4.77;;;18.10;99.90;;;;;;10507195;28;20229;-79
2021/06/04 03:19:21;;;;;;;4.70;4.40;;;18.10;99.90;;;;;;10506143;28;20716;-80
2021/06/04 03:24:29;;;;;;;6.27;5.40;;;18.10;99.90;;;;;;10505979;28;20722;-79
2021/06/04 03:29:33;;;;;;;5.73;5.20;;;18.10;99.90;;;;;;10506151;28;20272;-80
2021/06/04 03:34:38;;;;;;;6.90;5.33;;;18.00;99.90;;;;;;10503734;28;20566;-78
2021/06/04 03:39:41;;;;;;;5.77;5.30;;;18.00;99.90;;;;;;10506640;28;20287;-80
2021/06/04 03:44:49;;;;;;;5.90;5.40;;;18.00;99.90;;;;;;10506468;28;20247;-79
2021/06/04 03:49:53;;;;;;;5.67;5.27;;;18.00;99.90;;;;;;10505051;28;20204;-77
2021/06/04 03:54:58;;;;;;;6.23;5.73;;;18.00;99.90;;;;;;10483976;28;20221;-78
2021/06/04 04:00:05;;;;;;;5.97;5.47;;;18.10;99.90;;;;;;10507179;28;20315;-79
2021/06/04 04:05:16;;;;;;;5.83;5.37;;;18.10;99.90;;;;;;10504656;28;20299;-80
2021/06/04 04:10:20;;;;;;;5.47;5.10;;;18.20;99.90;;;;;;10505995;28;20204;-79
2021/06/04 04:15:25;;;;;;;5.97;5.40;;;18.20;99.90;;;;;;10501538;28;20221;-78
2021/06/04 04:20:29;;;;;;;6.17;5.70;;;18.20;99.90;;;;;;10479273;28;20287;-77
2021/06/04 04:25:34;;;;;;;7.10;5.70;;;18.30;99.90;;;;;;10490526;28;20481;-78
2021/06/04 04:30:38;;;;;;;5.83;5.40;;;18.40;99.90;;;;;;10495316;28;20295;-77
2021/06/04 04:35:39;;;;;;;5.50;5.20;;;18.60;99.90;;;;;;10494592;28;20240;-78
2021/06/04 04:40:41;;;;;;;6.40;5.90;;;18.80;99.90;;;;;;10486121;28;20292;-78
2021/06/04 04:45:44;;;;;;;6.70;5.80;;;19.00;99.90;;;;;;10452628;28;20233;-78
2021/06/04 04:50:46;;;;;;;6.53;6.13;;;19.20;99.90;;;;;;10477254;28;20204;-78
2021/06/04 04:55:47;;;;;;;7.40;6.70;;;19.30;99.90;;;;;;10476703;28;20674;-78
2021/06/04 05:00:51;;;;;;;5.70;5.30;;;19.50;99.90;;;;;;10487547;28;20197;-77
2021/06/04 05:05:53;;;;;;;6.40;5.97;;;19.60;99.90;;;;;;10472661;28;20319;-78
2021/06/04 05:10:56;;;;;;;6.30;5.90;;;19.70;99.90;;;;;;10475520;28;20204;-78
2021/06/04 05:15:59;;;;;;;7.23;6.63;;;19.70;99.90;;;;;;10498293;28;20250;-78
2021/06/04 05:21:03;;;;;;;6.10;5.50;;;19.80;99.90;;;;;;10498781;28;20207;-78
2021/06/04 05:26:05;;;;;;;6.50;6.00;;;19.90;99.90;;;;;;10495568;28;20635;-78
2021/06/04 05:31:10;;;;;;;6.40;5.90;;;19.90;99.90;;;;;;10497998;28;20728;-78
2021/06/04 05:36:15;;;;;;;7.30;6.80;;;20.10;99.90;;;;;;10490736;28;20675;-78
2021/06/04 05:41:18;;;;;;;6.93;6.43;;;20.10;99.90;;;;;;10489236;28;20694;-79
2021/06/04 05:46:22;;;;;;;7.20;6.70;;;20.30;99.90;;;;;;10492140;28;20705;-78
2021/06/04 05:51:28;;;;;;;7.30;6.60;;;20.60;99.90;;;;;;10492798;28;20208;-78
2021/06/04 05:56:30;;;;;;;6.90;6.20;;;20.90;99.90;;;;;;10492856;28;20638;-79
2021/06/04 06:01:35;;;;;;;6.20;5.80;;;21.10;99.90;;;;;;10493174;28;20295;-78
2021/06/04 06:06:37;;;;;;;6.60;5.53;;;21.30;99.90;;;;;;10486402;28;20254;-79
2021/06/04 06:11:39;;;;;;;6.40;5.90;;;21.50;99.90;;;;;;10493102;28;20279;-78
2021/06/04 06:16:42;;;;;;;5.50;5.10;;;21.70;99.90;;;;;;10491306;28;20259;-77
2021/06/04 06:21:46;;;;;;;5.40;5.03;;;21.90;99.90;;;;;;10491533;28;20609;-78
2021/06/04 06:26:48;;;;;;;10.37;5.10;;;22.10;99.90;;;;;;10495889;28;20616;-78
2021/06/04 06:31:52;;;;;;;5.67;5.27;;;22.40;99.90;;;;;;10493726;28;20204;-78
2021/06/04 06:36:53;;;;;;;5.20;4.80;;;22.60;99.90;;;;;;10496183;28;20196;-78
2021/06/04 06:41:58;;;;;;;4.97;4.50;;;22.80;99.90;;;;;;10494438;28;20204;-79
2021/06/04 06:47:01;;;;;;;5.43;4.10;;;22.80;99.90;;;;;;10499066;28;20208;-78
2021/06/04 06:52:09;;;;;;;5.90;4.30;;;22.80;99.90;;;;;;10502413;28;20207;-79
2021/06/04 06:57:11;;;;;;;4.87;4.47;;;22.60;99.90;;;;;;10506641;28;20208;-78
2021/06/04 07:02:14;;;;;;;4.33;4.00;;;22.50;99.90;;;;;;10506138;28;20255;-78
2021/06/04 07:07:17;;;;;;;5.60;5.13;;;22.40;99.90;;;;;;10503381;28;20672;-77
2021/06/04 07:12:21;;;;;;;5.57;5.07;;;22.30;99.90;;;;;;10506989;28;20294;-78
2021/06/04 07:17:26;;;;;;;5.60;4.80;;;22.20;99.90;;;;;;10500096;28;20229;-78
2021/06/04 07:22:31;;;;;;;4.53;4.23;;;22.20;99.90;;;;;;10499362;28;20276;-78
2021/06/04 07:27:33;;;;;;;5.40;4.90;;;22.30;99.90;;;;;;10496190;28;20258;-78
2021/06/04 07:32:37;;;;;;;5.07;4.67;;;22.50;99.90;;;;;;10502404;28;20307;-78
2021/06/04 07:37:38;;;;;;;7.63;5.40;;;22.70;99.90;;;;;;10491725;28;20224;-78
2021/06/04 07:42:40;;;;;;;5.03;4.53;;;22.80;99.90;;;;;;10497928;28;20311;-79
2021/06/04 07:47:44;;;;;;;5.63;4.70;;;23.10;99.90;;;;;;10491241;28;20199;-78
2021/06/04 07:53:10;;;;;;;5.20;4.80;;;23.40;99.90;;;;;;10487910;28;20242;-79
2021/06/04 07:58:12;;;;;;;5.40;4.27;;;23.80;99.90;;;;;;10494384;28;20740;-78
2021/06/04 08:03:25;;;;;;;5.33;4.83;;;24.10;99.90;;;;;;10497784;28;20696;-79
2021/06/04 08:08:27;;;;;;;4.37;3.97;;;24.60;99.90;;;;;;10487729;28;20205;-79
2021/06/04 08:13:29;;;;;;;4.20;3.90;;;25.10;99.90;;;;;;10491147;28;20221;-80
2021/06/04 08:18:35;;;;;;;3.77;3.47;;;25.80;99.90;;;;;;10490414;28;20272;-79
2021/06/04 08:23:40;;;;;;;5.70;4.20;;;26.40;99.90;;;;;;10496213;28;20233;-79
2021/06/04 08:28:42;;;;;;;3.77;3.47;;;27.00;99.90;;;;;;10495808;28;20235;-80
2021/06/04 08:33:46;;;;;;;4.00;3.70;;;27.60;99.80;;;;;;10496702;28;20217;-79
2021/06/04 08:38:48;;;;;;;3.97;3.63;;;28.10;97.90;;;;;;10493512;28;20349;-78
2021/06/04 08:44:11;;;;;;;4.20;3.07;;;28.50;96.40;;;;;;10502671;28;20231;-78
2021/06/04 08:49:21;;;;;;;4.43;3.80;;;28.60;95.60;;;;;;10501506;28;20204;-78
2021/06/04 08:54:32;;;;;;;4.30;3.80;;;29.00;95.00;;;;;;10488904;28;20295;-79
2021/06/04 08:59:35;;;;;;;3.47;3.27;;;29.10;92.40;;;;;;10496816;28;20208;-78
2021/06/04 09:04:45;;;;;;;3.83;3.40;;;29.20;92.20;;;;;;10485864;28;20231;-79
2021/06/04 09:09:50;;;;;;;3.93;3.50;;;29.30;91.50;;;;;;10483551;28;20200;-79
2021/06/04 09:14:54;;;;;;;4.90;4.50;;;29.40;91.10;;;;;;10496624;28;20253;-78
2021/06/04 09:20:07;;;;;;;4.40;4.10;;;29.70;89.60;;;;;;10497656;28;20205;-78
2021/06/04 09:25:14;;;;;;;5.33;3.40;;;29.90;89.00;;;;;;10487735;28;20251;-80
2021/06/04 09:30:24;;;;;;;3.97;3.60;;;30.20;87.70;;;;;;10496580;28;20228;-79
2021/06/04 09:35:28;;;;;;;6.27;3.73;;;30.60;86.40;;;;;;10497580;28;20216;-78
2021/06/04 09:40:33;;;;;;;5.90;4.43;;;30.70;84.70;;;;;;10496709;28;20200;-79
2021/06/04 09:45:39;;;;;;;3.70;3.33;;;31.10;81.10;;;;;;10482657;28;20240;-79
2021/06/04 09:50:45;;;;;;;4.57;3.63;;;32.00;78.40;;;;;;10462876;28;20219;-79
2021/06/04 09:55:49;;;;;;;3.50;3.30;;;32.90;73.60;;;;;;10493759;28;20238;-79
2021/06/04 10:01:07;;;;;;;3.33;3.13;;;32.60;73.30;;;;;;10475189;28;20354;-78
2021/06/04 10:06:23;;;;;;;4.50;3.20;;;32.10;75.30;;;;;;10488166;28;20303;-79
2021/06/04 10:11:27;;;;;;;4.90;3.50;;;32.90;73.80;;;;;;10480282;28;20211;-79
2021/06/04 10:16:58;;;;;;;4.23;3.87;;;33.00;75.20;;;;;;10488515;22;20324;-80
2021/06/04 10:22:17;;;;;;;3.50;3.20;;;34.30;68.40;;;;;;10405047;28;20209;-80
2021/06/04 10:27:36;;;;;;;4.00;3.57;;;33.40;67.10;;;;;;10443697;28;20231;-80
2021/06/04 10:32:48;;;;;;;3.97;3.67;;;31.90;71.40;;;;;;10445406;28;20208;-80
2021/06/04 10:37:57;;;;;;;4.90;4.50;;;30.70;73.10;;;;;;10455314;28;20303;-80
2021/06/04 10:43:40;;;;;;;3.87;3.57;;;29.80;75.60;;;;;;10439912;28;20236;-79
2021/06/04 10:49:02;;;;;;;4.70;4.30;;;29.10;80.20;;;;;;10456664;28;20291;-79
2021/06/04 10:54:19;;;;;;;4.67;4.23;;;28.30;80.50;;;;;;10439044;28;20302;-79
2021/06/04 10:59:36;;;;;;;4.27;3.97;;;27.60;80.90;;;;;;10457305;28;20197;-79
2021/06/04 11:04:47;;;;;;;4.37;3.80;;;27.10;85.00;;;;;;10432654;28;20569;-79
2021/06/04 11:10:12;;;;;;;11.30;3.83;;;26.50;90.10;;;;;;10452004;28;20213;-79
2021/06/04 11:15:18;;;;;;;4.53;3.90;;;25.90;91.60;;;;;;10461255;28;20693;-78
2021/06/04 11:20:22;;;;;;;4.23;3.93;;;25.40;93.10;;;;;;10462844;28;20197;-79
2021/06/04 11:25:37;;;;;;;4.80;4.27;;;25.00;94.70;;;;;;10446021;28;20587;-79
2021/06/04 11:30:39;;;;;;;5.73;5.00;;;24.60;95.80;;;;;;10437134;28;20300;-78
2021/06/04 11:35:46;;;;;;;6.17;5.57;;;24.40;98.50;;;;;;10458800;28;20220;-78
2021/06/04 11:40:52;;;;;;;4.37;4.00;;;24.00;99.90;;;;;;10429810;28;20216;-79
2021/06/04 11:46:16;;;;;;;6.33;4.50;;;23.90;99.90;;;;;;10462961;28;20225;-79
2021/06/04 11:51:37;;;;;;;8.13;4.93;;;23.70;99.90;;;;;;10461965;28;20232;-78
2021/06/04 11:56:44;;;;;;;5.13;4.63;;;23.70;99.90;;;;;;10463351;28;20716;-78
2021/06/04 12:01:48;;;;;;;4.60;4.20;;;23.80;99.90;;;;;;10463244;28;20653;-79
2021/06/04 12:06:55;;;;;;;5.10;4.60;;;23.80;99.90;;;;;;10442385;28;20274;-79
2021/06/04 12:12:46;;;;;;;4.87;4.47;;;23.80;99.90;;;;;;10427486;28;20332;-78
2021/06/04 12:17:48;;;;;;;5.30;4.23;;;23.90;99.90;;;;;;10460826;28;20204;-78
2021/06/04 12:22:52;;;;;;;5.43;4.20;;;23.90;99.90;;;;;;10442668;28;20284;-78
2021/06/04 12:28:30;;;;;;;4.30;3.47;;;23.90;99.90;;;;;;10443953;28;20243;-78
2021/06/04 12:33:56;;;;;;;8.00;4.87;;;24.00;99.90;;;;;;10443790;28;20229;-78
2021/06/04 12:39:46;;;;;;;4.33;3.80;;;24.00;99.90;;;;;;10456265;28;20205;-78
2021/06/04 12:44:56;;;;;;;14.57;6.93;;;23.70;99.90;;;;;;10417727;28;20786;-78
2021/06/04 12:50:11;;;;;;;11.40;10.40;;;23.10;99.90;;;;;;10441682;28;20209;-78
2021/06/04 12:55:30;;;;;;;10.77;10.10;;;22.20;99.90;;;;;;10442621;28;20224;-78
2021/06/04 13:00:33;;;;;;;10.80;9.90;;;21.40;99.90;;;;;;10442740;28;20205;-78
2021/06/04 13:05:36;;;;;;;10.57;9.67;;;20.90;99.90;;;;;;10461983;28;20221;-78
2021/06/04 13:10:47;;;;;;;11.20;10.30;;;20.70;99.90;;;;;;10473773;28;20197;-79
2021/06/04 13:15:51;;;;;;;10.93;9.80;;;20.80;99.90;;;;;;10463391;28;20680;-78
2021/06/04 13:20:55;;;;;;;11.40;10.47;;;20.90;99.90;;;;;;10460940;28;20596;-79
2021/06/04 13:26:08;;;;;;;10.90;9.90;;;21.20;99.90;;;;;;10441579;28;20233;-79
2021/06/04 13:31:17;;;;;;;10.10;9.23;;;21.70;99.90;;;;;;10440547;28;20223;-79
2021/06/04 13:36:20;;;;;;;10.53;9.70;;;22.00;99.90;;;;;;10422253;28;20230;-79
2021/06/04 13:41:34;;;;;;;9.70;8.70;;;22.20;99.90;;;;;;10441897;28;20649;-78
2021/06/04 13:46:40;;;;;;;10.23;9.13;;;22.40;99.90;;;;;;10459281;28;20221;-78
2021/06/04 13:51:53;;;;;;;9.27;8.43;;;22.50;99.90;;;;;;10438075;28;20295;-79
2021/06/04 13:56:58;;;;;;;9.13;8.13;;;22.60;99.90;;;;;;10448507;28;20295;-79
2021/06/04 14:02:27;;;;;;;8.53;7.73;;;22.60;99.90;;;;;;10452710;28;20284;-79
2021/06/04 14:07:37;;;;;;;8.63;7.87;;;22.60;99.90;;;;;;10444553;28;20251;-79
2021/06/04 14:12:38;;;;;;;7.40;6.80;;;22.60;99.90;;;;;;10448880;28;20205;-78
2021/06/04 14:17:42;;;;;;;8.20;6.60;;;22.50;99.90;;;;;;10434093;28;20673;-78
2021/06/04 14:22:46;;;;;;;6.97;6.47;;;22.40;99.90;;;;;;10451476;28;20692;-79
2021/06/04 14:28:00;;;;;;;6.97;6.47;;;22.10;99.90;;;;;;10450466;28;20197;-80
2021/06/04 14:33:17;;;;;;;6.63;6.23;;;21.90;99.90;;;;;;10429798;28;20225;-79
2021/06/04 14:38:30;;;;;;;7.80;7.10;;;21.70;99.90;;;;;;10451637;28;20284;-79
2021/06/04 14:43:32;;;;;;;8.43;7.73;;;21.40;99.90;;;;;;10453041;28;20225;-79
2021/06/04 14:48:37;;;;;;;7.63;7.03;;;21.20;99.90;;;;;;10433157;28;20706;-79
2021/06/04 14:53:39;;;;;;;8.73;8.03;;;21.00;99.90;;;;;;10437473;28;20267;-79
2021/06/04 14:58:41;;;;;;;9.57;8.87;;;21.00;99.90;;;;;;10462399;28;20209;-79
2021/06/04 15:03:44;;;;;;;8.67;7.87;;;21.10;99.90;;;;;;10462101;28;20231;-79
2021/06/04 15:08:47;;;;;;;9.37;8.67;;;21.30;99.90;;;;;;10431316;28;20251;-79
2021/06/04 15:13:50;;;;;;;12.47;11.40;;;21.40;99.90;;;;;;10442594;28;20232;-79
2021/06/04 15:18:53;;;;;;;12.50;11.40;;;21.60;99.90;;;;;;10462713;28;20665;-80
2021/06/04 15:23:55;;;;;;;12.00;11.00;;;21.70;99.90;;;;;;10461909;28;20229;-80
2021/06/04 15:28:57;;;;;;;12.17;11.07;;;21.90;99.90;;;;;;10464292;28;20208;-79
2021/06/04 15:34:00;;;;;;;12.73;10.53;;;22.10;99.90;;;;;;10461841;28;20292;-79
2021/06/04 15:39:04;;;;;;;12.10;10.90;;;22.20;99.90;;;;;;10461201;28;20201;-79
2021/06/04 15:44:08;;;;;;;11.33;10.43;;;22.40;99.90;;;;;;10462076;28;20300;-80
2021/06/04 15:49:11;;;;;;;9.43;8.43;;;22.50;99.90;;;;;;10463308;28;20204;-80
2021/06/04 15:54:13;;;;;;;7.57;6.97;;;22.60;99.90;;;;;;10463397;28;20276;-80
2021/06/04 15:59:16;;;;;;;6.23;5.63;;;22.60;99.90;;;;;;10443677;28;20288;-79
2021/06/04 16:04:20;;;;;;;7.30;6.70;;;22.60;99.90;;;;;;10444449;28;20229;-80
2021/06/04 16:09:21;;;;;;;6.63;6.13;;;22.70;99.90;;;;;;10439015;28;20207;-80
2021/06/04 16:14:23;;;;;;;7.23;6.63;;;22.80;99.90;;;;;;10462567;28;20249;-79
2021/06/04 16:19:26;;;;;;;6.80;5.70;;;22.90;99.90;;;;;;10445163;28;20231;-79
2021/06/04 16:24:28;;;;;;;5.17;4.70;;;23.00;99.90;;;;;;10460998;28;20659;-79
2021/06/04 16:29:30;;;;;;;6.43;5.90;;;23.10;99.90;;;;;;10456426;28;20202;-79
2021/06/04 16:34:36;;;;;;;8.00;6.70;;;23.20;99.90;;;;;;10443271;28;20858;-80
2021/06/04 16:39:40;;;;;;;6.83;6.23;;;23.20;99.90;;;;;;10461132;28;20203;-79
2021/06/04 16:44:42;;;;;;;6.87;6.27;;;23.30;99.90;;;;;;10444406;28;20228;-80
2021/06/04 16:49:45;;;;;;;6.47;5.87;;;23.30;99.90;;;;;;10444567;28;20653;-80
2021/06/04 16:54:46;;;;;;;11.57;5.70;;;23.40;99.90;;;;;;10445787;28;20283;-79
2021/06/04 16:59:48;;;;;;;5.93;5.50;;;23.40;99.90;;;;;;10445718;28;20219;-80
2021/06/04 17:04:51;;;;;;;6.33;5.73;;;23.40;99.90;;;;;;10463676;28;20252;-79
2021/06/04 17:09:53;;;;;;;5.43;5.03;;;23.30;99.90;;;;;;10457760;28;20319;-79
2021/06/04 17:14:55;;;;;;;5.00;4.60;;;23.30;99.90;;;;;;10444643;28;20229;-80
2021/06/04 17:19:58;;;;;;;6.70;6.20;;;23.20;99.90;;;;;;10462136;28;20288;-79
2021/06/04 17:25:00;;;;;;;6.23;5.30;;;23.10;99.90;;;;;;10464541;28;20217;-79
2021/06/04 17:30:12;;;;;;;6.33;5.53;;;23.00;99.90;;;;;;10463989;28;20208;-79
2021/06/04 17:35:16;;;;;;;5.50;5.10;;;22.90;99.90;;;;;;10443471;28;20217;-79
2021/06/04 17:40:20;;;;;;;6.63;5.57;;;22.80;99.90;;;;;;10455916;28;20284;-79
2021/06/04 17:45:25;;;;;;;6.60;6.10;;;22.80;99.90;;;;;;10443799;28;20221;-79
2021/06/04 17:50:28;;;;;;;7.27;5.63;;;22.70;99.90;;;;;;10462715;28;20224;-79
2021/06/04 17:55:31;;;;;;;5.80;5.30;;;22.70;99.90;;;;;;10461447;28;20270;-79
2021/06/04 18:00:34;;;;;;;5.60;4.90;;;22.60;99.90;;;;;;10462478;28;20236;-79
2021/06/04 18:05:39;;;;;;;6.37;5.77;;;22.60;99.90;;;;;;10444771;28;20295;-79
2021/06/04 18:10:40;;;;;;;6.30;5.20;;;22.50;99.90;;;;;;10442262;28;20205;-80
2021/06/04 18:15:44;;;;;;;5.40;4.87;;;22.50;99.90;;;;;;10445091;28;20224;-79
2021/06/04 18:20:49;;;;;;;7.60;5.87;;;22.40;99.90;;;;;;10468176;28;20255;-79
2021/06/04 18:25:51;;;;;;;6.03;5.47;;;22.30;99.90;;;;;;10448386;28;20233;-79
2021/06/04 18:30:55;;;;;;;7.27;5.80;;;22.20;99.90;;;;;;10464673;28;20196;-79
2021/06/04 18:35:59;;;;;;;8.73;5.43;;;22.10;99.90;;;;;;10458016;28;20217;-79
2021/06/04 18:41:01;;;;;;;7.37;6.67;;;22.10;99.90;;;;;;10456618;28;20542;-79
2021/06/04 18:46:04;;;;;;;6.43;5.40;;;22.00;99.90;;;;;;10441724;28;20323;-80
2021/06/04 18:51:09;;;;;;;6.23;5.63;;;21.90;99.90;;;;;;10459247;28;20645;-78
2021/06/04 18:56:12;;;;;;;7.40;5.73;;;21.80;99.90;;;;;;10440454;28;20788;-79
2021/06/04 19:01:14;;;;;;;6.60;5.87;;;21.80;99.90;;;;;;10441650;28;20209;-79
2021/06/04 19:06:19;;;;;;;6.63;6.13;;;21.70;99.90;;;;;;10440002;28;20236;-79
2021/06/04 19:11:24;;;;;;;6.17;5.67;;;21.60;99.90;;;;;;10457267;28;20204;-79
2021/06/04 19:16:27;;;;;;;6.33;5.83;;;21.60;99.90;;;;;;10456588;28;20304;-79
2021/06/04 19:21:31;;;;;;;6.43;5.67;;;21.50;99.90;;;;;;10457458;28;20632;-79
2021/06/04 19:26:33;;;;;;;6.90;6.40;;;21.40;99.90;;;;;;10423386;28;20233;-79
2021/06/04 19:31:37;;;;;;;10.40;6.53;;;21.30;99.90;;;;;;10440434;28;20217;-79
2021/06/04 19:36:40;;;;;;;6.83;6.30;;;21.20;99.90;;;;;;10463786;28;20236;-79
2021/06/04 19:41:42;;;;;;;6.70;6.20;;;21.10;99.90;;;;;;10459573;28;20563;-79
2021/06/04 19:46:44;;;;;;;7.33;6.73;;;20.90;99.90;;;;;;10444662;28;20715;-79
2021/06/04 19:51:48;;;;;;;7.10;6.50;;;20.80;99.90;;;;;;10463960;28;20225;-79
2021/06/04 19:56:52;;;;;;;6.77;6.23;;;20.70;99.90;;;;;;10432949;28;20596;-79
2021/06/04 20:01:53;;;;;;;6.50;5.90;;;20.60;99.90;;;;;;10445662;28;20255;-79
2021/06/04 20:06:57;;;;;;;9.10;5.90;;;20.60;99.90;;;;;;10463680;28;20311;-79
2021/06/04 20:11:59;;;;;;;6.70;6.10;;;20.60;99.90;;;;;;10447187;28;20208;-79
2021/06/04 20:17:01;;;;;;;6.63;6.10;;;20.50;99.90;;;;;;10429247;28;20286;-79
2021/06/04 20:22:04;;;;;;;8.13;5.90;;;20.50;99.90;;;;;;10429898;28;20201;-79
2021/06/04 20:27:06;;;;;;;6.10;5.60;;;20.40;99.90;;;;;;10437965;28;20229;-79
2021/06/04 20:32:08;;;;;;;6.90;6.30;;;20.40;99.90;;;;;;10438251;28;20271;-79
2021/06/04 20:37:11;;;;;;;10.57;8.27;;;20.30;99.90;;;;;;10446737;28;20308;-79
2021/06/04 20:42:14;;;;;;;9.40;8.50;;;20.40;99.90;;;;;;10440397;28;20285;-79
2021/06/04 20:47:19;;;;;;;7.97;7.33;;;20.30;99.90;;;;;;10461693;28;20225;-79
2021/06/04 20:52:22;;;;;;;7.50;6.90;;;20.30;99.90;;;;;;10444044;28;20249;-79
2021/06/04 20:57:24;;;;;;;11.73;7.07;;;20.30;99.90;;;;;;10442979;28;20299;-79
2021/06/04 21:02:25;;;;;;;7.20;6.60;;;20.30;99.90;;;;;;10461669;28;20201;-79
2021/06/04 21:07:28;;;;;;;7.60;6.10;;;20.20;99.90;;;;;;10432675;28;20298;-79
2021/06/04 21:12:30;;;;;;;7.57;6.90;;;20.10;99.90;;;;;;10426194;28;20205;-79
2021/06/04 21:17:32;;;;;;;8.10;7.30;;;20.10;99.90;;;;;;10440552;28;20596;-79
2021/06/04 21:22:36;;;;;;;7.23;6.60;;;20.00;99.90;;;;;;10443378;28;20296;-79
2021/06/04 21:27:38;;;;;;;6.50;5.90;;;20.00;99.90;;;;;;10460863;28;20327;-78
2021/06/04 21:32:39;;;;;;;8.07;7.13;;;20.00;99.90;;;;;;10460444;28;20280;-79
2021/06/04 21:37:43;;;;;;;11.80;6.07;;;19.90;99.90;;;;;;10461129;28;20193;-79
2021/06/04 21:42:44;;;;;;;7.37;6.70;;;19.80;99.90;;;;;;10461482;28;20299;-79
2021/06/04 21:47:46;;;;;;;6.27;5.67;;;19.80;99.90;;;;;;10410016;28;20228;-79
2021/06/04 21:52:49;;;;;;;8.73;6.27;;;19.80;99.90;;;;;;10461574;28;20205;-78
2021/06/04 21:57:51;;;;;;;7.30;6.60;;;19.80;99.90;;;;;;10461570;28;20221;-79
2021/06/04 22:02:53;;;;;;;12.40;7.80;;;19.80;99.90;;;;;;10445061;28;20225;-78
2021/06/04 22:07:57;;;;;;;7.83;7.13;;;19.90;99.90;;;;;;10460426;28;20236;-79
2021/06/04 22:12:59;;;;;;;6.63;6.13;;;20.00;99.90;;;;;;10463587;22;20740;-78
2021/06/04 22:18:03;;;;;;;9.50;7.40;;;20.10;99.90;;;;;;10506450;28;20295;-80
2021/06/04 22:23:09;;;;;;;7.30;6.80;;;20.10;99.90;;;;;;10496776;28;20252;-80
2021/06/04 22:28:14;;;;;;;7.90;7.30;;;20.10;99.90;;;;;;10498664;28;20196;-80
2021/06/04 22:33:16;;;;;;;8.30;7.50;;;20.10;99.90;;;;;;10494335;28;20262;-80
2021/06/04 22:38:19;;;;;;;8.90;8.20;;;20.00;99.90;;;;;;10479768;28;20200;-81
2021/06/04 22:43:21;;;;;;;10.03;8.40;;;19.90;99.90;;;;;;10497278;28;20231;-81
2021/06/04 22:48:24;;;;;;;10.10;9.10;;;19.80;99.90;;;;;;10497496;28;20208;-79
2021/06/04 22:53:27;;;;;;;11.40;8.30;;;19.80;99.90;;;;;;10479523;28;20224;-79
2021/06/04 22:58:33;;;;;;;9.67;7.23;;;19.80;99.90;;;;;;10498246;28;20374;-81
2021/06/04 23:03:38;;;;;;;7.53;6.93;;;19.80;99.90;;;;;;10498020;28;20259;-81
2021/06/04 23:08:41;;;;;;;7.87;7.17;;;19.80;99.90;;;;;;10499647;28;20284;-80
2021/06/04 23:13:43;;;;;;;16.73;6.87;;;19.80;99.90;;;;;;10502036;28;21264;-79
2021/06/04 23:18:44;;;;;;;6.07;5.60;;;19.80;99.90;;;;;;10506705;28;20682;-80
2021/06/04 23:23:53;;;;;;;6.17;5.63;;;19.80;99.90;;;;;;10507373;28;20244;-80
2021/06/04 23:28:56;;;;;;;5.47;4.97;;;19.90;99.90;;;;;;10505920;28;20203;-80
2021/06/04 23:34:00;;;;;;;6.83;5.10;;;20.00;99.90;;;;;;10508695;28;20254;-80
2021/06/04 23:39:07;;;;;;;4.23;3.93;;;20.00;99.90;;;;;;10491598;28;20200;-79
2021/06/04 23:44:09;;;;;;;4.23;3.70;;;20.10;99.90;;;;;;10497206;28;20282;-80
2021/06/04 23:49:11;;;;;;;2.77;2.40;;;20.10;99.90;;;;;;10501501;28;20577;-79
2021/06/04 23:54:14;;;;;;;2.77;2.57;;;20.20;99.90;;;;;;10500314;28;20225;-80
2021/06/04 23:59:16;;;;;;;8.87;2.20;;;20.20;99.90;;;;;;10500977;28;20217;-79
